createdAt,value
2019-04-23T00:00:38.100Z,14.32
2019-04-23T00:02:33.226Z,14.23
2019-04-23T00:03:38.926Z,14.17
2019-04-23T00:04:36.761Z,14.17
2019-04-23T00:06:42.989Z,14.14
2019-04-23T00:07:51.830Z,14.23
2019-04-23T00:08:50.133Z,14.28
2019-04-23T00:09:39.795Z,14.36
2019-04-23T00:10:34.399Z,14.44
2019-04-23T00:11:41.590Z,14.50
2019-04-23T00:12:43.835Z,14.55
2019-04-23T00:13:43.868Z,14.65
2019-04-23T00:14:47.560Z,14.66
2019-04-23T00:15:40.624Z,14.63
2019-04-23T00:16:42.547Z,14.69
2019-04-23T00:17:42.534Z,14.63
2019-04-23T00:18:42.667Z,14.66
2019-04-23T00:19:39.679Z,14.70
2019-04-23T00:20:44.253Z,14.53
2019-04-23T00:21:40.502Z,14.45
2019-04-23T00:22:47.495Z,14.50
2019-04-23T00:23:49.844Z,14.40
2019-04-23T00:25:04.794Z,14.44
2019-04-23T00:26:44.092Z,14.48
2019-04-23T00:28:47.514Z,14.36
2019-04-23T00:29:48.427Z,14.45
2019-04-23T00:30:50.005Z,14.29
2019-04-23T00:31:38.878Z,14.17
2019-04-23T00:33:34.303Z,13.85
2019-04-23T00:34:41.453Z,13.79
2019-04-23T00:35:38.978Z,13.67
2019-04-23T00:36:42.378Z,13.54
2019-04-23T00:37:35.364Z,13.49
2019-04-23T00:38:38.399Z,13.41
2019-04-23T00:39:44.765Z,13.39
2019-04-23T00:40:40.862Z,13.37
2019-04-23T00:41:52.902Z,13.18
2019-04-23T00:43:06.635Z,13.15
2019-04-23T00:43:50.498Z,12.94
2019-04-23T00:46:43.450Z,12.57
2019-04-23T00:47:43.180Z,12.37
2019-04-23T00:48:43.148Z,12.28
2019-04-23T00:49:39.928Z,12.15
2019-04-23T00:50:44.778Z,11.94
2019-04-23T00:51:45.611Z,11.88
2019-04-23T00:52:42.171Z,11.84
2019-04-23T00:53:32.703Z,11.83
2019-04-23T00:54:39.365Z,11.70
2019-04-23T00:55:44.690Z,11.66
2019-04-23T00:56:45.963Z,11.59
2019-04-23T00:58:41.629Z,11.51
2019-04-23T00:59:50.517Z,11.37
2019-04-23T01:00:42.431Z,11.45
2019-04-23T01:01:42.740Z,11.47
2019-04-23T01:03:37.529Z,11.32
2019-04-23T01:04:41.755Z,11.17
2019-04-23T01:06:39.064Z,11.14
2019-04-23T01:07:38.541Z,11.29
2019-04-23T01:08:35.607Z,11.35
2019-04-23T01:09:45.690Z,11.30
2019-04-23T01:10:46.253Z,11.41
2019-04-23T01:11:38.977Z,11.33
2019-04-23T01:14:38.575Z,11.25
2019-04-23T01:15:41.146Z,11.15
2019-04-23T01:16:40.981Z,11.15
2019-04-23T01:17:54.533Z,11.12
2019-04-23T01:18:46.909Z,10.96
2019-04-23T01:19:38.562Z,10.96
2019-04-23T01:20:45.925Z,10.81
2019-04-23T01:21:18.036Z,10.72
2019-04-23T01:22:19.036Z,10.71
2019-04-23T01:23:21.918Z,10.53
2019-04-23T01:24:21.826Z,10.53
2019-04-23T01:25:27.532Z,10.33
2019-04-23T01:26:35.477Z,10.31
2019-04-23T01:27:59.075Z,10.28
2019-04-23T01:29:42.875Z,10.31
2019-04-23T01:30:43.459Z,10.22
2019-04-23T01:31:43.019Z,10.28
2019-04-23T01:32:46.240Z,10.38
2019-04-23T01:33:47.016Z,10.31
2019-04-23T01:34:52.012Z,10.30
2019-04-23T01:35:39.716Z,10.28
2019-04-23T01:36:35.676Z,10.25
2019-04-23T01:37:41.522Z,10.31
2019-04-23T01:38:45.492Z,10.26
2019-04-23T01:39:47.578Z,10.28
2019-04-23T01:40:40.653Z,10.35
2019-04-23T01:41:48.128Z,10.31
2019-04-23T01:43:44.003Z,10.26
2019-04-23T01:45:35.759Z,10.10
2019-04-23T01:46:55.686Z,10.04
2019-04-23T01:47:45.685Z,9.89
2019-04-23T01:48:50.286Z,9.89
2019-04-23T01:50:48.740Z,9.82
2019-04-23T01:51:46.683Z,9.73
2019-04-23T01:52:50.769Z,9.74
2019-04-23T01:53:45.213Z,9.76
2019-04-23T01:54:49.913Z,9.69
2019-04-23T01:56:42.376Z,9.64
2019-04-23T01:57:47.322Z,9.61
2019-04-23T01:58:45.377Z,9.56
2019-04-23T01:59:49.441Z,9.59
2019-04-23T02:00:40.772Z,9.55
2019-04-23T02:01:47.996Z,9.58
2019-04-23T02:02:49.986Z,9.61
2019-04-23T02:03:41.146Z,9.61
2019-04-23T02:04:44.530Z,9.55
2019-04-23T02:05:42.957Z,9.58
2019-04-23T02:06:44.938Z,9.59
2019-04-23T02:08:47.318Z,9.51
2019-04-23T02:09:48.253Z,9.43
2019-04-23T02:11:45.552Z,9.31
2019-04-23T02:12:49.601Z,9.36
2019-04-23T02:13:43.980Z,9.23
2019-04-23T02:14:44.784Z,9.21
2019-04-23T02:15:42.436Z,9.10
2019-04-23T02:16:44.097Z,9.10
2019-04-23T02:17:47.848Z,8.99
2019-04-23T02:18:41.584Z,8.95
2019-04-23T02:19:47.977Z,9.00
2019-04-23T02:20:45.839Z,8.94
2019-04-23T02:21:47.190Z,8.97
2019-04-23T02:23:04.660Z,8.82
2019-04-23T02:23:35.840Z,8.91
2019-04-23T02:24:47.575Z,8.81
2019-04-23T02:25:54.063Z,8.85
2019-04-23T02:26:43.893Z,8.84
2019-04-23T02:27:52.259Z,8.74
2019-04-23T02:28:46.372Z,8.73
2019-04-23T02:29:51.284Z,8.84
2019-04-23T02:32:01.477Z,8.71
2019-04-23T02:33:01.574Z,8.69
2019-04-23T02:33:49.973Z,8.76
2019-04-23T02:35:55.859Z,8.76
2019-04-23T02:37:00.553Z,8.84
2019-04-23T02:41:54.312Z,8.76
2019-04-23T02:43:56.438Z,8.91
2019-04-23T02:44:49.917Z,8.82
2019-04-23T02:45:56.654Z,8.91
2019-04-23T02:47:56.919Z,8.78
2019-04-23T02:48:53.700Z,8.71
2019-04-23T02:50:01.723Z,8.73
2019-04-23T02:50:45.718Z,8.73
2019-04-23T02:51:51.187Z,8.71
2019-04-23T02:52:49.774Z,8.73
2019-04-23T02:55:54.980Z,8.71
2019-04-23T02:57:54.106Z,8.52
2019-04-23T03:01:10.459Z,8.60
2019-04-23T03:01:54.372Z,8.58
2019-04-23T03:03:01.668Z,8.60
2019-04-23T03:04:49.890Z,8.55
2019-04-23T03:05:51.063Z,8.58
2019-04-23T03:06:56.814Z,8.58
2019-04-23T03:08:46.695Z,8.60
2019-04-23T03:10:53.539Z,8.55
2019-04-23T03:11:50.119Z,8.49
2019-04-23T03:13:09.801Z,8.49
2019-04-23T03:13:55.565Z,8.52
2019-04-23T03:14:50.793Z,8.53
2019-04-23T03:17:59.270Z,8.26
2019-04-23T03:19:02.555Z,8.26
2019-04-23T03:19:58.578Z,8.19
2019-04-23T03:20:59.521Z,8.19
2019-04-23T03:22:01.682Z,8.24
2019-04-23T03:24:15.088Z,8.23
2019-04-23T03:25:46.083Z,8.16
2019-04-23T03:27:44.053Z,8.23
2019-04-23T03:29:55.345Z,8.27
2019-04-23T03:31:57.916Z,8.26
2019-04-23T03:34:04.275Z,8.15
2019-04-23T03:37:46.242Z,8.24
2019-04-23T03:39:56.830Z,8.10
2019-04-23T03:40:56.822Z,8.05
2019-04-23T03:42:51.155Z,8.01
2019-04-23T03:45:58.803Z,8.01
2019-04-23T03:46:41.771Z,8.01
2019-04-23T03:47:48.193Z,8.00
2019-04-23T03:49:00.641Z,7.94
2019-04-23T03:49:56.981Z,7.98
2019-04-23T03:51:56.282Z,7.97
2019-04-23T03:54:45.633Z,7.93
2019-04-23T03:55:55.664Z,8.00
2019-04-23T03:58:05.227Z,7.95
2019-04-23T03:58:51.286Z,7.91
2019-04-23T04:03:02.185Z,7.90
2019-04-23T04:04:20.661Z,7.83
2019-04-23T04:06:07.691Z,7.91
2019-04-23T04:07:01.268Z,7.98
2019-04-23T04:08:46.967Z,7.94
2019-04-23T04:08:58.266Z,7.90
2019-04-23T04:09:49.653Z,7.90
2019-04-23T04:10:53.457Z,8.01
2019-04-23T04:11:48.654Z,7.90
2019-04-23T04:14:08.600Z,7.94
2019-04-23T04:15:10.529Z,7.95
2019-04-23T04:16:05.160Z,7.90
2019-04-23T04:16:49.154Z,7.90
2019-04-23T04:18:06.720Z,7.90
2019-04-23T04:19:47.629Z,7.98
2019-04-23T04:23:53.530Z,8.09
2019-04-23T04:28:51.411Z,8.23
2019-04-23T04:32:58.836Z,8.37
2019-04-23T04:35:48.661Z,8.26
2019-04-23T04:37:56.030Z,8.09
2019-04-23T04:40:50.026Z,7.90
2019-04-23T04:42:06.556Z,7.88
2019-04-23T04:42:58.976Z,7.87
2019-04-23T04:44:17.146Z,7.91
2019-04-23T04:44:47.794Z,7.79
2019-04-23T04:48:50.758Z,7.82
2019-04-23T04:49:56.216Z,7.80
2019-04-23T04:51:08.427Z,7.90
2019-04-23T04:52:02.160Z,7.77
2019-04-23T04:54:44.338Z,8.03
2019-04-23T04:56:56.691Z,8.23
2019-04-23T04:59:03.824Z,8.28
2019-04-23T05:00:06.893Z,8.28
2019-04-23T05:02:02.667Z,8.53
2019-04-23T05:03:36.296Z,8.58
2019-04-23T05:07:50.255Z,8.76
2019-04-23T05:08:57.707Z,8.74
2019-04-23T05:09:55.575Z,8.76
2019-04-23T05:10:51.991Z,8.81
2019-04-23T05:11:52.285Z,8.91
2019-04-23T05:12:45.245Z,8.99
2019-04-23T05:14:59.155Z,9.10
2019-04-23T05:15:44.301Z,9.03
2019-04-23T05:16:50.815Z,9.16
2019-04-23T05:18:00.319Z,9.25
2019-04-23T05:18:47.541Z,9.29
2019-04-23T05:23:05.989Z,9.51
2019-04-23T05:23:45.888Z,9.58
2019-04-23T05:24:43.314Z,9.69
2019-04-23T05:25:46.379Z,9.73
2019-04-23T05:26:34.524Z,9.76
2019-04-23T05:28:00.896Z,9.83
2019-04-23T05:28:57.176Z,9.94
2019-04-23T05:29:51.172Z,9.95
2019-04-23T05:30:50.175Z,9.97
2019-04-23T05:31:37.625Z,10.17
2019-04-23T05:32:41.826Z,10.12
2019-04-23T05:33:49.252Z,10.23
2019-04-23T05:34:39.826Z,10.23
2019-04-23T05:38:10.386Z,10.34
2019-04-23T05:39:38.125Z,10.33
2019-04-23T05:41:42.096Z,10.49
2019-04-23T05:42:49.384Z,10.61
2019-04-23T05:43:46.257Z,10.51
2019-04-23T05:44:44.801Z,10.59
2019-04-23T05:45:39.909Z,10.71
2019-04-23T05:47:43.993Z,10.93
2019-04-23T05:48:37.345Z,10.87
2019-04-23T05:49:46.090Z,10.93
2019-04-23T05:50:51.450Z,11.04
2019-04-23T05:51:51.014Z,11.18
2019-04-23T05:52:50.595Z,11.19
2019-04-23T05:53:45.171Z,11.27
2019-04-23T05:54:54.893Z,11.32
2019-04-23T05:55:49.316Z,11.40
2019-04-23T05:57:53.924Z,11.59
2019-04-23T05:58:46.884Z,11.60
2019-04-23T05:59:43.340Z,11.70
2019-04-23T06:00:45.017Z,11.72
2019-04-23T06:02:48.585Z,11.86
2019-04-23T06:03:52.683Z,11.88
2019-04-23T06:04:42.747Z,11.87
2019-04-23T06:05:46.547Z,11.99
2019-04-23T06:07:45.689Z,12.09
2019-04-23T06:08:46.045Z,12.28
2019-04-23T06:09:41.735Z,12.32
2019-04-23T06:10:54.171Z,12.36
2019-04-23T06:11:51.207Z,12.43
2019-04-23T06:12:46.931Z,12.54
2019-04-23T06:13:43.014Z,12.64
2019-04-23T06:14:47.393Z,12.60
2019-04-23T06:15:57.809Z,12.67
2019-04-23T06:16:52.733Z,12.78
2019-04-23T06:17:37.715Z,12.82
2019-04-23T06:18:47.194Z,12.91
2019-04-23T06:19:42.480Z,12.87
2019-04-23T06:20:51.875Z,12.90
2019-04-23T06:21:54.168Z,12.97
2019-04-23T06:22:45.960Z,13.04
2019-04-23T06:24:07.835Z,12.93
2019-04-23T06:24:44.311Z,13.16
2019-04-23T06:27:00.728Z,13.19
2019-04-23T06:27:51.585Z,13.11
2019-04-23T06:28:40.269Z,13.16
2019-04-23T06:29:39.554Z,13.25
2019-04-23T06:31:47.487Z,13.31
2019-04-23T06:32:44.479Z,13.30
2019-04-23T06:33:44.973Z,13.37
2019-04-23T06:34:43.493Z,13.38
2019-04-23T06:35:46.906Z,13.41
2019-04-23T06:36:46.359Z,13.44
2019-04-23T06:38:04.808Z,13.57
2019-04-23T06:38:55.011Z,13.57
2019-04-23T06:39:44.521Z,13.60
2019-04-23T06:40:44.948Z,13.67
2019-04-23T06:41:44.921Z,13.65
2019-04-23T06:42:34.606Z,13.67
2019-04-23T06:43:54.776Z,13.74
2019-04-23T06:44:45.013Z,13.77
2019-04-23T06:45:37.822Z,13.79
2019-04-23T06:48:01.798Z,13.95
2019-04-23T06:48:40.720Z,13.92
2019-04-23T06:49:47.870Z,13.87
2019-04-23T06:50:51.079Z,14.04
2019-04-23T06:52:31.779Z,14.10
2019-04-23T06:53:35.882Z,14.17
2019-04-23T06:54:47.786Z,14.22
2019-04-23T06:55:42.557Z,14.41
2019-04-23T06:56:54.133Z,14.48
2019-04-23T06:57:31.796Z,14.69
2019-04-23T06:58:43.729Z,14.77
2019-04-23T06:59:41.428Z,14.81
2019-04-23T07:00:45.808Z,14.89
2019-04-23T07:01:51.170Z,15.02
2019-04-23T07:02:44.238Z,15.07
2019-04-23T07:03:45.246Z,15.15
2019-04-23T07:04:49.619Z,15.14
2019-04-23T07:05:57.852Z,15.03
2019-04-23T07:06:48.534Z,15.07
2019-04-23T07:07:59.694Z,15.06
2019-04-23T07:09:05.133Z,14.92
2019-04-23T07:09:39.049Z,14.88
2019-04-23T07:10:49.127Z,14.89
2019-04-23T07:11:39.009Z,14.89
2019-04-23T07:12:41.372Z,14.88
2019-04-23T07:13:57.764Z,14.84
2019-04-23T07:14:59.575Z,14.91
2019-04-23T07:15:45.856Z,14.85
2019-04-23T07:16:39.611Z,14.89
2019-04-23T07:17:39.497Z,14.89
2019-04-23T07:18:44.532Z,14.85
2019-04-23T07:19:43.546Z,14.89
2019-04-23T07:20:46.502Z,14.97
2019-04-23T07:21:42.448Z,15.06
2019-04-23T07:22:43.240Z,15.15
2019-04-23T07:23:54.119Z,15.14
2019-04-23T07:24:46.137Z,15.24
2019-04-23T07:25:41.764Z,15.35
2019-04-23T07:26:40.456Z,15.37
2019-04-23T07:27:39.364Z,15.62
2019-04-23T07:28:49.507Z,15.86
2019-04-23T07:29:39.198Z,16.17
2019-04-23T07:30:38.458Z,16.47
2019-04-23T07:32:48.037Z,17.15
2019-04-23T07:33:52.824Z,17.42
2019-04-23T07:34:49.380Z,17.54
2019-04-23T07:35:45.368Z,17.78
2019-04-23T07:36:47.912Z,17.89
2019-04-23T07:37:51.775Z,17.86
2019-04-23T07:38:49.325Z,17.86
2019-04-23T07:39:47.335Z,17.76
2019-04-23T07:40:41.684Z,17.94
2019-04-23T07:41:52.779Z,17.89
2019-04-23T07:42:44.072Z,18.00
2019-04-23T07:43:49.568Z,17.97
2019-04-23T07:45:01.956Z,18.00
2019-04-23T07:45:45.495Z,18.00
2019-04-23T07:47:00.994Z,17.90
2019-04-23T07:47:47.422Z,17.83
2019-04-23T07:48:34.388Z,17.89
2019-04-23T07:49:50.619Z,17.78
2019-04-23T07:50:45.957Z,17.71
2019-04-23T07:51:51.428Z,17.72
2019-04-23T07:52:51.360Z,17.92
2019-04-23T07:53:46.703Z,17.87
2019-04-23T07:54:45.709Z,17.95
2019-04-23T07:56:41.918Z,17.98
2019-04-23T07:57:41.191Z,18.11
2019-04-23T07:58:52.501Z,18.03
2019-04-23T07:59:51.678Z,18.03
2019-04-23T08:00:45.487Z,18.00
2019-04-23T08:01:44.869Z,17.97
2019-04-23T08:03:05.507Z,18.13
2019-04-23T08:03:48.117Z,18.13
2019-04-23T08:04:55.633Z,18.28
2019-04-23T08:05:39.661Z,18.22
2019-04-23T08:06:49.061Z,18.20
2019-04-23T08:07:42.315Z,18.35
2019-04-23T08:08:43.218Z,18.34
2019-04-23T08:09:47.933Z,18.34
2019-04-23T08:11:01.490Z,18.31
2019-04-23T08:11:56.786Z,18.35
2019-04-23T08:12:59.510Z,18.37
2019-04-23T08:13:47.604Z,18.47
2019-04-23T08:14:49.686Z,18.52
2019-04-23T08:15:42.950Z,18.49
2019-04-23T08:16:36.662Z,18.45
2019-04-23T08:17:45.071Z,18.41
2019-04-23T08:18:49.260Z,18.40
2019-04-23T08:19:49.117Z,18.44
2019-04-23T08:20:50.888Z,18.44
2019-04-23T08:21:37.814Z,18.45
2019-04-23T08:22:45.424Z,18.41
2019-04-23T08:23:44.066Z,18.80
2019-04-23T08:24:51.051Z,19.04
2019-04-23T08:25:45.540Z,19.21
2019-04-23T08:27:42.146Z,19.63
2019-04-23T08:28:58.497Z,19.74
2019-04-23T08:29:41.109Z,19.76
2019-04-23T08:30:45.412Z,19.89
2019-04-23T08:31:43.832Z,20.02
2019-04-23T08:32:37.030Z,20.11
2019-04-23T08:33:49.779Z,20.09
2019-04-23T08:34:48.288Z,20.11
2019-04-23T08:35:43.660Z,20.00
2019-04-23T08:37:54.381Z,19.96
2019-04-23T08:38:48.594Z,19.99
2019-04-23T08:39:45.481Z,19.88
2019-04-23T08:40:52.546Z,19.79
2019-04-23T08:42:02.003Z,19.81
2019-04-23T08:44:46.194Z,19.70
2019-04-23T08:45:40.063Z,19.64
2019-04-23T08:46:50.979Z,19.58
2019-04-23T08:47:49.043Z,19.55
2019-04-23T08:48:41.403Z,19.54
2019-04-23T08:49:48.781Z,19.49
2019-04-23T08:52:45.932Z,19.51
2019-04-23T08:53:47.984Z,19.36
2019-04-23T08:56:50.119Z,18.92
2019-04-23T08:57:36.969Z,18.89
2019-04-23T08:58:41.675Z,18.88
2019-04-23T08:59:45.478Z,18.92
2019-04-23T09:00:49.778Z,18.98
2019-04-23T09:01:55.688Z,18.98
2019-04-23T09:02:44.168Z,18.95
2019-04-23T09:03:39.159Z,18.88
2019-04-23T09:04:50.245Z,18.86
2019-04-23T09:05:46.785Z,18.81
2019-04-23T09:06:47.197Z,18.81
2019-04-23T09:07:45.102Z,18.86
2019-04-23T09:11:45.930Z,18.83
2019-04-23T09:12:45.644Z,18.63
2019-04-23T09:13:53.373Z,18.63
2019-04-23T09:14:46.556Z,18.60
2019-04-23T09:15:46.429Z,18.63
2019-04-23T09:16:43.876Z,18.65
2019-04-23T09:17:47.600Z,18.56
2019-04-23T09:18:42.340Z,18.58
2019-04-23T09:19:56.009Z,18.60
2019-04-23T09:20:37.848Z,18.66
2019-04-23T09:21:40.516Z,18.68
2019-04-23T09:22:38.820Z,18.74
2019-04-23T09:23:46.757Z,18.81
2019-04-23T09:26:40.575Z,18.80
2019-04-23T09:27:42.086Z,18.88
2019-04-23T09:28:48.819Z,18.84
2019-04-23T09:30:00.731Z,18.84
2019-04-23T09:30:49.578Z,18.88
2019-04-23T09:32:07.626Z,18.98
2019-04-23T09:32:49.186Z,18.93
2019-04-23T09:33:58.047Z,18.95
2019-04-23T09:34:52.375Z,18.90
2019-04-23T09:35:38.938Z,18.96
2019-04-23T09:36:40.619Z,19.02
2019-04-23T09:37:49.354Z,18.99
2019-04-23T09:38:49.900Z,19.09
2019-04-23T09:39:52.955Z,18.93
2019-04-23T09:40:59.295Z,18.93
2019-04-23T09:41:39.926Z,18.89
2019-04-23T09:42:46.342Z,18.83
2019-04-23T09:44:07.826Z,18.80
2019-04-23T09:46:48.331Z,18.92
2019-04-23T09:47:47.422Z,18.84
2019-04-23T09:48:51.403Z,18.86
2019-04-23T09:49:40.922Z,18.89
2019-04-23T09:50:41.453Z,18.95
2019-04-23T09:51:51.201Z,18.98
2019-04-23T09:52:46.264Z,18.96
2019-04-23T09:53:48.725Z,19.09
2019-04-23T09:54:49.594Z,19.02
2019-04-23T09:55:41.790Z,19.19
2019-04-23T09:56:44.590Z,19.24
2019-04-23T09:57:50.254Z,19.18
2019-04-23T09:58:45.095Z,19.26
2019-04-23T09:59:47.350Z,19.29
2019-04-23T10:00:43.674Z,19.22
2019-04-23T10:01:40.994Z,19.21
2019-04-23T10:02:34.043Z,19.26
2019-04-23T10:03:31.669Z,19.26
2019-04-23T10:04:34.569Z,19.34
2019-04-23T10:05:28.745Z,19.26
2019-04-23T10:06:22.615Z,19.34
2019-04-23T10:07:28.611Z,19.52
2019-04-23T10:08:21.731Z,19.40
2019-04-23T10:09:16.685Z,19.37
2019-04-23T10:10:16.428Z,19.39
2019-04-23T10:11:17.805Z,19.39
2019-04-23T10:12:15.878Z,19.40
2019-04-23T10:13:16.074Z,19.37
2019-04-23T10:14:16.701Z,19.34
2019-04-23T10:15:22.855Z,19.36
2019-04-23T10:16:19.411Z,19.41
2019-04-23T10:17:16.134Z,19.40
2019-04-23T10:18:16.219Z,19.39
2019-04-23T10:19:17.145Z,19.29
2019-04-23T10:20:16.415Z,19.24
2019-04-23T10:21:17.336Z,19.31
2019-04-23T10:22:17.303Z,19.36
2019-04-23T10:23:15.974Z,19.47
2019-04-23T10:24:16.965Z,19.40
2019-04-23T10:25:17.161Z,19.44
2019-04-23T10:26:16.425Z,19.52
2019-04-23T10:27:17.032Z,19.55
2019-04-23T10:28:17.193Z,19.59
2019-04-23T10:29:16.102Z,19.48
2019-04-23T10:30:17.537Z,19.40
2019-04-23T10:31:16.700Z,19.36
2019-04-23T10:32:15.874Z,19.36
2019-04-23T10:33:15.871Z,19.33
2019-04-23T10:34:17.037Z,19.36
2019-04-23T10:35:27.324Z,19.31
2019-04-23T10:36:19.885Z,19.40
2019-04-23T10:37:15.889Z,19.41
2019-04-23T10:38:19.869Z,19.49
2019-04-23T10:39:22.078Z,19.44
2019-04-23T10:40:22.646Z,19.51
2019-04-23T10:41:16.154Z,19.27
2019-04-23T10:42:16.146Z,19.31
2019-04-23T10:43:17.141Z,19.34
2019-04-23T10:44:17.138Z,19.54
2019-04-23T10:45:30.398Z,19.59
2019-04-23T10:46:38.036Z,19.70
2019-04-23T10:47:45.219Z,19.67
2019-04-23T10:48:49.682Z,19.71
2019-04-23T10:49:53.610Z,19.63
2019-04-23T10:50:49.105Z,19.63
2019-04-23T10:51:44.592Z,19.58
2019-04-23T10:52:53.716Z,19.62
2019-04-23T10:53:45.869Z,19.73
2019-04-23T10:54:43.351Z,19.71
2019-04-23T10:56:44.945Z,19.64
2019-04-23T10:57:36.148Z,19.77
2019-04-23T10:58:38.679Z,19.64
2019-04-23T11:00:51.005Z,19.69
2019-04-23T11:01:45.308Z,19.69
2019-04-23T11:02:59.366Z,19.74
2019-04-23T11:03:58.879Z,19.77
2019-04-23T11:05:50.229Z,19.77
2019-04-23T11:06:47.232Z,19.74
2019-04-23T11:07:55.186Z,19.77
2019-04-23T11:08:40.587Z,19.86
2019-04-23T11:10:46.846Z,19.94
2019-04-23T11:11:48.426Z,20.02
2019-04-23T11:13:50.233Z,20.18
2019-04-23T11:14:53.133Z,20.31
2019-04-23T11:15:55.809Z,20.52
2019-04-23T11:17:46.824Z,20.55
2019-04-23T11:19:52.731Z,20.62
2019-04-23T11:20:46.210Z,20.87
2019-04-23T11:21:56.510Z,20.97
2019-04-23T11:23:56.054Z,20.99
2019-04-23T11:26:49.892Z,21.09
2019-04-23T11:27:44.115Z,21.18
2019-04-23T11:28:51.919Z,21.21
2019-04-23T11:32:06.785Z,21.17
2019-04-23T11:33:43.103Z,21.03
2019-04-23T11:35:06.872Z,21.02
2019-04-23T11:36:18.936Z,21.06
2019-04-23T11:36:53.974Z,21.02
2019-04-23T11:39:45.355Z,21.06
2019-04-23T11:40:40.377Z,21.07
2019-04-23T11:42:50.007Z,21.11
2019-04-23T11:44:49.521Z,21.14
2019-04-23T11:46:53.983Z,21.02
2019-04-23T11:51:18.753Z,20.96
2019-04-23T11:51:58.012Z,21.02
2019-04-23T11:52:54.507Z,21.06
2019-04-23T11:54:43.601Z,21.06
2019-04-23T11:57:14.269Z,21.05
2019-04-23T11:58:07.553Z,20.97
2019-04-23T11:59:47.203Z,21.12
2019-04-23T12:00:49.225Z,21.15
2019-04-23T12:02:51.200Z,21.15
2019-04-23T12:03:58.618Z,21.17
2019-04-23T12:04:57.576Z,21.14
2019-04-23T12:06:46.075Z,21.11
2019-04-23T12:07:41.288Z,21.15
2019-04-23T12:08:44.407Z,21.11
2019-04-23T12:09:47.022Z,21.11
2019-04-23T12:10:47.760Z,21.07
2019-04-23T12:11:52.842Z,21.06
2019-04-23T12:12:39.567Z,21.03
2019-04-23T12:13:54.098Z,20.99
2019-04-23T12:14:46.333Z,21.07
2019-04-23T12:15:46.323Z,21.15
2019-04-23T12:16:57.315Z,21.14
2019-04-23T12:17:49.088Z,21.02
2019-04-23T12:18:58.144Z,21.03
2019-04-23T12:21:53.116Z,21.03
2019-04-23T12:22:51.842Z,20.99
2019-04-23T12:25:02.524Z,20.95
2019-04-23T12:25:45.776Z,20.90
2019-04-23T12:27:01.013Z,20.82
2019-04-23T12:27:46.963Z,20.88
2019-04-23T12:28:44.383Z,20.95
2019-04-23T12:29:47.543Z,20.99
2019-04-23T12:30:49.094Z,21.00
2019-04-23T12:31:53.816Z,21.00
2019-04-23T12:32:53.700Z,21.03
2019-04-23T12:34:55.694Z,21.07
2019-04-23T12:35:42.304Z,21.03
2019-04-23T12:36:43.253Z,21.17
2019-04-23T12:38:40.664Z,21.20
2019-04-23T12:39:51.181Z,21.32
2019-04-23T12:40:37.954Z,21.25
2019-04-23T12:41:48.905Z,21.24
2019-04-23T12:43:43.546Z,21.30
2019-04-23T12:44:45.768Z,21.24
2019-04-23T12:45:50.431Z,21.29
2019-04-23T12:46:45.102Z,21.21
2019-04-23T12:48:46.818Z,21.39
2019-04-23T12:50:49.897Z,21.45
2019-04-23T12:51:47.133Z,21.40
2019-04-23T12:52:47.802Z,21.51
2019-04-23T12:53:57.751Z,21.45
2019-04-23T12:56:05.073Z,21.42
2019-04-23T12:56:56.841Z,21.42
2019-04-23T12:57:47.289Z,21.35
2019-04-23T12:58:36.054Z,21.48
2019-04-23T12:59:43.828Z,21.51
2019-04-23T13:00:55.895Z,21.55
2019-04-23T13:01:54.084Z,21.61
2019-04-23T13:02:44.200Z,21.64
2019-04-23T13:03:39.253Z,21.66
2019-04-23T13:04:48.865Z,21.60
2019-04-23T13:05:33.921Z,21.73
2019-04-23T13:06:45.874Z,21.72
2019-04-23T13:08:46.050Z,21.62
2019-04-23T13:09:52.580Z,21.51
2019-04-23T13:11:40.788Z,21.57
2019-04-23T13:13:47.861Z,21.51
2019-04-23T13:14:49.699Z,21.50
2019-04-23T13:15:39.956Z,21.42
2019-04-23T13:16:53.670Z,21.46
2019-04-23T13:18:46.773Z,21.43
2019-04-23T13:19:49.230Z,21.40
2019-04-23T13:22:03.086Z,21.50
2019-04-23T13:22:48.756Z,21.58
2019-04-23T13:23:41.055Z,21.52
2019-04-23T13:24:48.945Z,21.62
2019-04-23T13:25:49.559Z,21.62
2019-04-23T13:26:35.659Z,21.72
2019-04-23T13:29:51.730Z,21.77
2019-04-23T13:30:50.826Z,21.72
2019-04-23T13:31:39.911Z,21.70
2019-04-23T13:32:50.172Z,21.72
2019-04-23T13:34:54.734Z,21.60
2019-04-23T13:35:55.250Z,21.72
2019-04-23T13:36:44.839Z,21.70
2019-04-23T13:38:41.747Z,21.62
2019-04-23T13:39:44.289Z,21.61
2019-04-23T13:40:46.474Z,21.64
2019-04-23T13:41:47.868Z,21.60
2019-04-23T13:42:45.067Z,21.52
2019-04-23T13:44:47.851Z,21.60
2019-04-23T13:46:46.726Z,21.51
2019-04-23T13:48:36.668Z,21.52
2019-04-23T13:49:51.102Z,21.52
2019-04-23T13:51:40.503Z,21.50
2019-04-23T13:53:48.056Z,21.55
2019-04-23T13:54:59.869Z,21.58
2019-04-23T13:55:42.666Z,21.55
2019-04-23T13:57:12.793Z,21.51
2019-04-23T13:58:03.134Z,21.48
2019-04-23T13:58:43.302Z,21.54
2019-04-23T13:59:44.582Z,21.58
2019-04-23T14:02:03.282Z,21.66
2019-04-23T14:02:43.958Z,21.52
2019-04-23T14:03:54.482Z,21.51
2019-04-23T14:05:51.192Z,21.48
2019-04-23T14:06:47.494Z,21.46
2019-04-23T14:07:48.370Z,21.48
2019-04-23T14:10:04.760Z,21.37
2019-04-23T14:10:48.166Z,21.43
2019-04-23T14:11:45.273Z,21.48
2019-04-23T14:13:03.414Z,21.43
2019-04-23T14:14:47.849Z,21.36
2019-04-23T14:17:59.619Z,21.35
2019-04-23T14:19:45.678Z,21.35
2019-04-23T14:20:42.238Z,21.43
2019-04-23T14:21:46.922Z,21.43
2019-04-23T14:23:07.917Z,21.45
2019-04-23T14:24:57.409Z,21.51
2019-04-23T14:26:02.545Z,21.54
2019-04-23T14:26:39.973Z,21.55
2019-04-23T14:27:51.960Z,21.57
2019-04-23T14:29:48.122Z,21.52
2019-04-23T14:31:07.794Z,21.54
2019-04-23T14:31:44.152Z,21.55
2019-04-23T14:32:46.854Z,21.54
2019-04-23T14:34:01.370Z,21.39
2019-04-23T14:34:58.433Z,21.50
2019-04-23T14:35:46.813Z,21.42
2019-04-23T14:36:43.107Z,21.46
2019-04-23T14:38:01.955Z,21.45
2019-04-23T14:38:44.603Z,21.42
2019-04-23T14:39:45.698Z,21.48
2019-04-23T14:41:44.744Z,21.37
2019-04-23T14:43:58.056Z,21.33
2019-04-23T14:44:41.032Z,21.42
2019-04-23T14:46:15.674Z,21.45
2019-04-23T14:46:49.942Z,21.36
2019-04-23T14:48:50.019Z,21.35
2019-04-23T14:50:12.891Z,21.35
2019-04-23T14:50:44.167Z,21.36
2019-04-23T14:51:49.914Z,21.42
2019-04-23T14:52:55.105Z,21.35
2019-04-23T14:53:43.831Z,21.43
2019-04-23T14:55:57.198Z,21.32
2019-04-23T14:56:45.860Z,21.33
2019-04-23T14:57:49.884Z,21.35
2019-04-23T14:58:50.305Z,21.42
2019-04-23T14:59:49.451Z,21.43
2019-04-23T15:00:53.090Z,21.45
2019-04-23T15:01:42.810Z,21.46
2019-04-23T15:04:47.614Z,21.51
2019-04-23T15:05:56.491Z,21.46
2019-04-23T15:06:55.740Z,21.55
2019-04-23T15:07:45.736Z,21.54
2019-04-23T15:08:48.607Z,21.46
2019-04-23T15:12:45.750Z,21.57
2019-04-23T15:13:44.687Z,21.48
2019-04-23T15:14:52.425Z,21.51
2019-04-23T15:15:44.106Z,21.54
2019-04-23T15:16:43.094Z,21.67
2019-04-23T15:19:02.677Z,21.61
2019-04-23T15:20:48.433Z,21.64
2019-04-23T15:22:00.591Z,21.62
2019-04-23T15:23:14.368Z,21.58
2019-04-23T15:25:18.113Z,21.75
2019-04-23T15:27:45.306Z,21.77
2019-04-23T15:28:20.162Z,21.76
2019-04-23T15:29:32.824Z,21.69
2019-04-23T15:30:52.052Z,21.69
2019-04-23T15:31:48.920Z,21.73
2019-04-23T15:32:53.516Z,21.70
2019-04-23T15:33:57.327Z,21.77
2019-04-23T15:34:40.389Z,21.85
2019-04-23T15:35:55.408Z,21.89
2019-04-23T15:38:16.293Z,21.89
2019-04-23T15:38:53.734Z,21.95
2019-04-23T15:39:46.510Z,21.96
2019-04-23T15:40:41.827Z,21.95
2019-04-23T15:42:51.805Z,21.91
2019-04-23T15:43:52.159Z,21.98
2019-04-23T15:44:40.934Z,22.06
2019-04-23T15:45:44.545Z,22.04
2019-04-23T15:47:50.734Z,22.04
2019-04-23T15:48:53.968Z,22.04
2019-04-23T15:49:45.152Z,22.10
2019-04-23T15:50:43.566Z,22.11
2019-04-23T15:52:53.430Z,22.07
2019-04-23T15:53:45.407Z,22.06
2019-04-23T15:54:48.341Z,21.96
2019-04-23T15:56:53.208Z,22.06
2019-04-23T15:58:05.475Z,22.06
2019-04-23T15:58:54.016Z,22.18
2019-04-23T16:00:52.989Z,22.13
2019-04-23T16:01:37.105Z,22.11
2019-04-23T16:02:15.995Z,22.14
2019-04-23T16:03:19.745Z,22.13
2019-04-23T16:04:19.262Z,22.14
2019-04-23T16:05:18.434Z,22.07
2019-04-23T16:06:21.241Z,22.11
2019-04-23T16:07:32.553Z,22.13
2019-04-23T16:08:51.746Z,22.15
2019-04-23T16:09:46.652Z,22.15
2019-04-23T16:10:54.535Z,22.23
2019-04-23T16:11:43.877Z,22.15
2019-04-23T16:12:31.386Z,22.17
2019-04-23T16:14:04.663Z,22.25
2019-04-23T16:14:47.863Z,22.20
2019-04-23T16:15:50.886Z,22.20